Time;durP1;ratioP1;P1;durP2;ratioP2;P2;SDS_P1;SDS_P2;PMS_P1;PMS_P2;Temp;Humidity;BMP_temperature;BMP_pressure;BME280_temperature;BME280_humidity;BME280_pressure;Samples;Min_cycle;Max_cycle;Signal;HPM_P1;HPM_P2
2021/04/01 00:01:56;;;;;;;2.35;1.27;;;23.90;30.80;;;;;;5112477;28;20382;-67
2021/04/01 00:04:22;;;;;;;1.90;1.20;;;23.90;30.60;;;;;;5111142;28;20802;-63
2021/04/01 00:06:48;;;;;;;2.10;1.15;;;23.90;30.70;;;;;;5111360;28;20396;-65
2021/04/01 00:09:13;;;;;;;2.43;1.20;;;23.90;30.70;;;;;;5110712;28;20391;-67
2021/04/01 00:11:39;;;;;;;2.28;1.20;;;23.90;30.70;;;;;;5112426;28;20417;-67
2021/04/01 00:14:05;;;;;;;1.93;1.10;;;23.90;30.60;;;;;;5112451;28;20470;-67
2021/04/01 00:16:35;;;;;;;2.20;1.23;;;23.90;30.70;;;;;;5112454;28;20392;-66
2021/04/01 00:19:02;;;;;;;1.88;1.10;;;23.90;30.70;;;;;;5112224;28;20385;-67
2021/04/01 00:21:28;;;;;;;2.83;1.10;;;23.90;30.70;;;;;;5112086;28;20392;-66
2021/04/01 00:23:54;;;;;;;2.03;1.00;;;23.90;30.60;;;;;;5112464;28;20441;-67
2021/04/01 00:26:20;;;;;;;2.10;1.20;;;23.80;30.60;;;;;;5112364;28;20412;-67
2021/04/01 00:28:46;;;;;;;2.40;1.20;;;23.80;30.50;;;;;;5112316;28;20384;-67
2021/04/01 00:31:11;;;;;;;2.20;1.10;;;23.90;30.70;;;;;;5110533;28;20899;-67
2021/04/01 00:33:37;;;;;;;2.28;1.13;;;23.90;30.70;;;;;;5112102;28;20416;-67
2021/04/01 00:36:03;;;;;;;2.40;1.07;;;23.80;30.60;;;;;;5112149;28;20380;-67
2021/04/01 00:38:29;;;;;;;1.80;1.00;;;23.80;30.70;;;;;;5111890;28;20396;-66
2021/04/01 00:40:54;;;;;;;2.28;1.30;;;23.80;30.60;;;;;;5112189;28;20772;-67
2021/04/01 00:43:20;;;;;;;2.27;1.30;;;23.80;30.60;;;;;;5111559;28;20483;-67
2021/04/01 00:45:46;;;;;;;2.28;1.35;;;23.80;30.50;;;;;;5111838;28;20446;-67
2021/04/01 00:48:12;;;;;;;2.07;1.17;;;23.80;30.60;;;;;;5111917;28;20475;-66
2021/04/01 00:50:37;;;;;;;2.03;1.30;;;23.80;30.50;;;;;;5110678;28;20393;-67
2021/04/01 00:53:03;;;;;;;3.57;1.40;;;23.80;30.50;;;;;;5111833;28;20735;-67
2021/04/01 00:55:29;;;;;;;2.80;1.40;;;23.80;30.60;;;;;;5110477;28;20396;-66
2021/04/01 00:57:57;;;;;;;2.50;1.30;;;23.70;30.70;;;;;;5111934;28;20391;-66
2021/04/01 01:00:26;;;;;;;2.33;1.30;;;23.80;30.70;;;;;;5111913;28;20412;-67
2021/04/01 01:02:52;;;;;;;2.78;1.30;;;23.80;30.60;;;;;;5110625;28;20389;-66
2021/04/01 01:05:20;;;;;;;3.10;1.50;;;23.70;30.50;;;;;;5110116;28;20412;-66
2021/04/01 01:07:46;;;;;;;3.53;1.50;;;23.70;30.60;;;;;;5111750;28;20428;-67
2021/04/01 01:10:15;;;;;;;2.42;1.38;;;23.70;30.50;;;;;;5110385;28;20747;-67
2021/04/01 01:12:41;;;;;;;2.78;1.30;;;23.70;30.50;;;;;;5112686;28;20428;-66
2021/04/01 01:15:08;;;;;;;2.67;1.40;;;23.70;30.40;;;;;;5115564;28;20407;-66
2021/04/01 01:17:34;;;;;;;2.47;1.40;;;23.70;30.50;;;;;;5115928;28;20384;-67
2021/04/01 01:20:00;;;;;;;3.27;1.53;;;23.70;30.40;;;;;;5115829;28;20392;-67
2021/04/01 01:22:26;;;;;;;2.65;1.40;;;23.70;30.40;;;;;;5115983;28;20799;-66
2021/04/01 01:24:52;;;;;;;2.97;1.40;;;23.70;30.40;;;;;;5115529;28;20475;-67
2021/04/01 01:27:19;;;;;;;2.50;1.50;;;23.70;30.40;;;;;;5114134;28;20400;-67
2021/04/01 01:29:47;;;;;;;2.95;1.50;;;23.70;30.30;;;;;;5115592;28;20411;-67
2021/04/01 01:32:15;;;;;;;3.00;1.55;;;23.70;30.40;;;;;;5115737;28;20388;-67
2021/04/01 01:34:42;;;;;;;2.85;1.35;;;23.70;30.40;;;;;;5115502;28;20388;-64
2021/04/01 01:37:07;;;;;;;2.60;1.40;;;23.70;30.40;;;;;;5115330;28;20393;-66
2021/04/01 01:39:33;;;;;;;2.57;1.40;;;23.70;30.30;;;;;;5113924;28;20402;-67
2021/04/01 01:41:59;;;;;;;2.67;1.40;;;23.70;30.20;;;;;;5115144;28;20399;-67
2021/04/01 01:44:24;;;;;;;2.27;1.23;;;23.70;30.30;;;;;;5115281;28;20751;-67
2021/04/01 01:46:50;;;;;;;2.30;1.27;;;23.60;30.30;;;;;;5115345;28;20388;-67
2021/04/01 01:49:16;;;;;;;2.80;1.50;;;23.60;30.30;;;;;;5114798;28;20380;-67
2021/04/01 01:51:42;;;;;;;2.20;1.27;;;23.70;30.30;;;;;;5114063;28;20388;-66
2021/04/01 01:54:07;;;;;;;2.40;1.25;;;23.60;30.20;;;;;;5115318;28;20388;-67
2021/04/01 01:56:34;;;;;;;2.47;1.30;;;23.60;30.20;;;;;;5115291;28;20384;-67
2021/04/01 01:59:00;;;;;;;2.78;1.33;;;23.60;30.20;;;;;;5115242;28;20376;-66
2021/04/01 02:01:26;;;;;;;2.83;1.20;;;23.60;30.20;;;;;;5114574;28;20412;-66
2021/04/01 02:03:52;;;;;;;1.90;1.30;;;23.60;30.20;;;;;;5115276;27;20392;-67
2021/04/01 02:06:20;;;;;;;2.17;1.17;;;23.60;30.30;;;;;;5114962;28;20420;-64
2021/04/01 02:08:47;;;;;;;2.72;1.27;;;23.60;30.30;;;;;;5115126;28;20408;-67
2021/04/01 02:11:15;;;;;;;2.10;1.20;;;23.60;30.20;;;;;;5114176;28;20389;-66
2021/04/01 02:13:41;;;;;;;2.10;1.10;;;23.60;30.20;;;;;;5114888;28;20384;-67
2021/04/01 02:16:07;;;;;;;2.00;1.20;;;23.60;30.30;;;;;;5114930;28;20380;-65
2021/04/01 02:18:32;;;;;;;2.35;1.30;;;23.60;30.20;;;;;;5114649;28;20385;-65
2021/04/01 02:21:00;;;;;;;1.70;1.10;;;23.60;30.20;;;;;;5114827;27;20781;-67
2021/04/01 02:23:28;;;;;;;2.58;1.30;;;23.50;30.10;;;;;;5112515;28;20419;-68
2021/04/01 02:25:56;;;;;;;2.33;1.20;;;23.60;30.30;;;;;;5114575;27;20879;-66
2021/04/01 02:28:24;;;;;;;2.85;1.23;;;23.60;30.20;;;;;;5114507;28;20396;-67
2021/04/01 02:30:53;;;;;;;2.50;1.20;;;23.60;30.30;;;;;;5114483;28;20856;-67
2021/04/01 02:33:21;;;;;;;2.50;1.30;;;23.60;30.30;;;;;;5113962;27;20441;-67
2021/04/01 02:35:47;;;;;;;1.67;1.10;;;23.60;30.20;;;;;;5114497;28;20460;-67
2021/04/01 02:38:13;;;;;;;2.70;1.40;;;23.50;30.00;;;;;;5114416;28;20376;-66
2021/04/01 02:40:40;;;;;;;1.88;1.10;;;23.50;30.00;;;;;;5113616;28;20403;-66
2021/04/01 02:43:06;;;;;;;1.90;1.25;;;23.50;30.00;;;;;;5113317;28;20380;-65
2021/04/01 02:45:32;;;;;;;2.28;1.30;;;23.50;30.00;;;;;;5113679;28;20914;-67
2021/04/01 02:47:58;;;;;;;1.60;1.20;;;23.50;30.00;;;;;;5114528;28;20576;-67
2021/04/01 02:50:24;;;;;;;2.47;1.35;;;23.50;30.00;;;;;;5114199;28;20474;-67
2021/04/01 02:52:50;;;;;;;2.20;1.10;;;23.50;30.00;;;;;;5114188;27;20384;-66
2021/04/01 02:55:16;;;;;;;2.70;1.30;;;23.50;30.00;;;;;;5113465;28;20380;-61
2021/04/01 02:57:42;;;;;;;1.85;1.02;;;23.50;30.00;;;;;;5113914;27;20384;-66
2021/04/01 03:00:12;;;;;;;2.40;1.10;;;23.50;30.10;;;;;;5114034;28;20872;-66
2021/04/01 03:02:40;;;;;;;1.95;1.10;;;23.50;30.10;;;;;;5113881;28;20467;-67
2021/04/01 03:05:07;;;;;;;2.58;1.38;;;23.50;30.10;;;;;;5113566;28;20885;-60
2021/04/01 03:07:35;;;;;;;2.30;1.10;;;23.50;30.10;;;;;;5113586;28;20725;-67
2021/04/01 03:10:02;;;;;;;3.88;1.15;;;23.40;30.10;;;;;;5113714;28;20391;-67
2021/04/01 03:12:27;;;;;;;2.20;1.17;;;23.40;30.70;;;;;;5113663;28;20551;-66
2021/04/01 03:14:53;;;;;;;2.25;1.08;;;23.30;30.60;;;;;;5113608;28;20435;-67
2021/04/01 03:17:19;;;;;;;2.87;1.07;;;23.30;30.50;;;;;;5112952;28;20471;-67
2021/04/01 03:19:45;;;;;;;3.42;1.50;;;23.40;30.70;;;;;;5113704;28;20408;-66
2021/04/01 03:22:11;;;;;;;3.50;1.15;;;23.40;31.10;;;;;;5113580;28;20416;-67
2021/04/01 03:24:36;;;;;;;3.07;1.10;;;23.30;31.20;;;;;;5113097;28;20839;-67
2021/04/01 03:27:02;;;;;;;5.00;1.17;;;23.40;30.80;;;;;;5111356;28;20388;-59
2021/04/01 03:29:28;;;;;;;4.88;1.40;;;23.40;31.30;;;;;;5113148;28;20717;-59
2021/04/01 03:31:53;;;;;;;5.63;1.30;;;23.40;31.80;;;;;;5113270;28;20938;-62
2021/04/01 03:34:19;;;;;;;6.15;1.27;;;23.40;31.80;;;;;;5112616;28;20459;-59
2021/04/01 03:36:45;;;;;;;6.57;1.30;;;23.40;33.10;;;;;;5112704;28;20387;-58
2021/04/01 03:39:12;;;;;;;4.13;1.20;;;23.40;32.90;;;;;;5113142;28;20480;-62
2021/04/01 03:41:38;;;;;;;4.72;1.17;;;23.50;32.30;;;;;;5112614;28;20475;-61
2021/04/01 03:44:04;;;;;;;5.55;1.08;;;23.50;32.30;;;;;;5112884;28;20392;-60
2021/04/01 03:46:29;;;;;;;3.57;1.20;;;23.50;33.20;;;;;;5111470;28;20815;-59
2021/04/01 03:48:55;;;;;;;7.25;1.30;;;23.50;33.30;;;;;;5111528;28;20385;-59
2021/04/01 03:51:21;;;;;;;5.17;1.40;;;23.50;33.10;;;;;;5112486;28;20425;-61
2021/04/01 03:53:46;;;;;;;4.15;1.10;;;23.50;33.70;;;;;;5111539;28;20399;-62
2021/04/01 03:56:12;;;;;;;3.42;1.20;;;23.50;33.00;;;;;;5112514;28;20385;-59
2021/04/01 04:04:44;;;;;;;4.53;1.40;;;23.50;31.70;;;;;;5112996;28;20376;-65
2021/04/01 04:09:49;;;;;;;6.17;1.30;;;23.50;31.20;;;;;;5112344;28;20429;-62
2021/04/01 04:17:44;;;;;;;5.03;1.58;;;23.40;31.70;;;;;;5088846;28;20471;-62
2021/04/01 04:20:10;;;;;;;5.05;1.38;;;23.40;30.80;;;;;;5112311;28;20951;-59
2021/04/01 04:22:36;;;;;;;7.38;1.30;;;23.40;30.50;;;;;;5112411;28;20453;-59
2021/04/01 04:25:06;;;;;;;4.82;1.40;;;23.40;31.10;;;;;;5112146;28;20867;-60
2021/04/01 04:30:02;;;;;;;2.90;1.30;;;23.40;30.60;;;;;;5112363;28;20419;-58
2021/04/01 04:32:28;;;;;;;4.15;1.20;;;23.40;30.80;;;;;;5112315;28;20404;-59
2021/04/01 04:34:54;;;;;;;3.95;1.35;;;23.40;30.70;;;;;;5112251;28;20429;-59
2021/04/01 04:37:20;;;;;;;3.65;1.30;;;23.40;30.70;;;;;;5111746;28;20388;-66
2021/04/01 04:39:46;;;;;;;4.50;1.40;;;23.40;30.70;;;;;;5112125;28;20467;-61
2021/04/01 04:42:12;;;;;;;3.33;1.20;;;23.30;30.70;;;;;;5112206;28;20490;-62
2021/04/01 04:44:37;;;;;;;3.30;1.00;;;23.30;30.60;;;;;;5111595;28;20444;-61
2021/04/01 04:47:03;;;;;;;3.97;1.10;;;23.30;30.60;;;;;;5111764;28;20396;-65
2021/04/01 04:49:29;;;;;;;3.63;1.00;;;23.30;30.60;;;;;;5111570;27;20884;-59
2021/04/01 04:51:55;;;;;;;3.88;1.20;;;23.40;30.60;;;;;;5110903;28;20392;-59
2021/04/01 04:54:20;;;;;;;3.13;1.00;;;23.30;30.60;;;;;;5111995;28;20731;-62
2021/04/01 04:56:47;;;;;;;3.05;1.00;;;23.40;30.70;;;;;;5111957;28;20380;-59
2021/04/01 04:59:26;;;;;;;2.38;1.08;;;23.30;30.60;;;;;;5111798;28;20431;-62
2021/04/01 05:04:47;;;;;;;2.87;1.20;;;23.30;30.50;;;;;;5111721;28;20426;-61
2021/04/01 05:07:12;;;;;;;2.92;0.98;;;23.30;30.70;;;;;;5111704;28;20392;-64
2021/04/01 05:09:38;;;;;;;4.00;1.10;;;23.30;30.60;;;;;;5111556;28;20403;-64
2021/04/01 05:12:04;;;;;;;3.13;1.00;;;23.30;30.50;;;;;;5111851;28;20423;-65
2021/04/01 05:14:30;;;;;;;2.78;0.93;;;23.30;30.60;;;;;;5111769;28;20377;-60
2021/04/01 05:16:56;;;;;;;1.83;0.90;;;23.30;30.60;;;;;;5111793;28;20387;-61
2021/04/01 05:19:23;;;;;;;2.60;1.00;;;23.30;30.60;;;;;;5111290;28;20425;-61
2021/04/01 05:22:07;;;;;;;2.13;0.93;;;23.30;30.50;;;;;;5111686;28;20451;-58
2021/04/01 05:24:37;;;;;;;2.28;0.90;;;23.30;30.60;;;;;;5111503;28;20783;-59
2021/04/01 05:27:21;;;;;;;2.38;1.00;;;23.30;30.60;;;;;;5111502;28;20431;-58
2021/04/01 05:29:59;;;;;;;2.47;1.00;;;23.30;30.60;;;;;;5111625;28;20388;-61
2021/04/01 05:32:32;;;;;;;2.38;1.05;;;23.30;30.60;;;;;;5111902;28;20396;-60
2021/04/01 05:35:00;;;;;;;2.97;1.00;;;23.30;30.60;;;;;;5111728;28;20387;-59
2021/04/01 05:37:27;;;;;;;1.83;1.00;;;23.30;30.50;;;;;;5111063;28;20860;-58
2021/04/01 05:39:57;;;;;;;1.70;0.90;;;23.30;30.50;;;;;;5111611;28;20388;-58
2021/04/01 05:42:26;;;;;;;3.33;1.10;;;23.30;30.60;;;;;;5111554;28;20380;-59
2021/04/01 06:04:01;;;;;;;2.20;1.00;;;23.30;30.40;;;;;;5091647;28;20388;-59
2021/04/01 06:06:32;;;;;;;1.63;0.90;;;23.30;30.40;;;;;;5115024;28;20499;-60
2021/04/01 06:09:03;;;;;;;1.92;0.80;;;23.30;30.40;;;;;;5113695;28;20392;-61
2021/04/01 06:11:30;;;;;;;2.15;1.00;;;23.30;30.40;;;;;;5114502;28;20380;-66
2021/04/01 06:14:11;;;;;;;1.85;0.95;;;23.30;30.40;;;;;;5115233;28;20373;-61
2021/04/01 06:16:42;;;;;;;2.03;0.95;;;23.30;30.30;;;;;;5114885;28;20414;-62
2021/04/01 06:19:14;;;;;;;2.10;1.00;;;23.30;30.40;;;;;;5114933;28;20395;-65
2021/04/01 06:21:48;;;;;;;3.15;1.08;;;23.30;30.40;;;;;;5114119;28;20723;-62
2021/04/01 06:24:25;;;;;;;2.20;1.00;;;23.30;30.30;;;;;;5114547;28;20380;-60
2021/04/01 06:29:37;;;;;;;2.53;0.90;;;23.30;30.40;;;;;;5114213;28;20383;-61
2021/04/01 06:32:05;;;;;;;2.13;0.90;;;23.20;30.30;;;;;;5114668;28;20376;-59
2021/04/01 06:34:34;;;;;;;2.00;1.00;;;23.20;30.10;;;;;;5114536;28;20787;-66
2021/04/01 06:37:02;;;;;;;1.48;0.82;;;23.30;30.30;;;;;;5114410;28;20891;-64
2021/04/01 06:39:28;;;;;;;1.80;0.90;;;23.20;30.20;;;;;;5113998;28;20709;-66
2021/04/01 06:42:17;;;;;;;1.63;0.80;;;23.30;30.20;;;;;;5114440;27;20392;-62
2021/04/01 06:44:54;;;;;;;2.22;0.90;;;23.30;30.20;;;;;;5114098;28;20487;-60
2021/04/01 06:47:23;;;;;;;1.65;0.90;;;23.30;30.10;;;;;;5113998;28;20963;-61
2021/04/01 06:50:17;;;;;;;1.92;0.90;;;23.30;30.00;;;;;;5112876;28;20387;-60
2021/04/01 06:52:48;;;;;;;1.75;0.98;;;23.30;30.00;;;;;;5113795;28;20392;-58
2021/04/01 07:03:12;;;;;;;2.60;1.00;;;23.50;29.90;;;;;;5105305;28;20464;-65
2021/04/01 07:05:52;;;;;;;2.17;0.80;;;23.50;30.00;;;;;;5101478;28;20415;-60
2021/04/01 07:08:22;;;;;;;2.20;1.10;;;23.50;29.90;;;;;;5108588;28;20783;-62
2021/04/01 07:10:54;;;;;;;1.88;0.90;;;23.50;30.00;;;;;;5113180;28;20380;-64
2021/04/01 07:13:35;;;;;;;2.30;0.90;;;23.50;29.90;;;;;;5113255;28;20389;-66
2021/04/01 07:16:16;;;;;;;1.98;0.90;;;23.50;29.90;;;;;;5113370;28;20946;-64
2021/04/01 07:48:49;;;;;;;3.00;0.90;;;23.60;29.90;;;;;;5111899;28;20393;-64
2021/04/01 07:54:08;;;;;;;1.92;1.00;;;23.60;29.90;;;;;;5111624;28;20373;-63
2021/04/01 07:56:47;;;;;;;1.88;1.05;;;23.70;29.90;;;;;;5111556;28;20387;-66
2021/04/01 08:04:53;;;;;;;1.85;0.80;;;23.70;29.80;;;;;;5068408;28;20392;-66
2021/04/01 08:07:22;;;;;;;1.98;0.88;;;23.80;29.80;;;;;;5103200;28;20416;-66
2021/04/01 08:09:57;;;;;;;1.85;0.98;;;23.80;29.80;;;;;;5111196;28;20885;-64
2021/04/01 08:12:30;;;;;;;1.73;0.82;;;23.80;29.80;;;;;;5111304;28;20392;-66
2021/04/01 08:15:02;;;;;;;1.65;1.00;;;23.80;29.80;;;;;;5111798;28;20380;-66
2021/04/01 08:17:35;;;;;;;1.75;0.93;;;23.90;29.80;;;;;;5111026;28;20458;-66
2021/04/01 08:20:02;;;;;;;1.55;0.85;;;23.90;29.70;;;;;;5111541;28;20379;-66
2021/04/01 08:22:29;;;;;;;2.30;0.90;;;23.90;29.70;;;;;;5110605;28;20863;-64
2021/04/01 08:25:02;;;;;;;2.00;0.90;;;23.90;29.70;;;;;;5111001;28;20415;-66
2021/04/01 08:27:48;;;;;;;2.92;0.90;;;23.90;29.70;;;;;;5110545;28;20391;-63
2021/04/01 08:31:09;;;;;;;1.48;0.70;;;23.90;29.70;;;;;;5111344;28;20392;-65
2021/04/01 08:33:31;;;;;;;1.88;1.05;;;23.90;29.70;;;;;;5105352;28;20384;-66
2021/04/01 08:35:58;;;;;;;2.13;0.90;;;23.90;29.70;;;;;;5110733;28;20490;-64
2021/04/01 08:38:25;;;;;;;2.25;1.00;;;24.00;30.10;;;;;;5111038;28;20384;-66
2021/04/01 08:40:51;;;;;;;1.73;0.90;;;24.00;29.70;;;;;;5110819;28;20808;-65
2021/04/01 08:43:44;;;;;;;1.40;0.75;;;24.00;29.70;;;;;;5110944;28;20372;-66
2021/04/01 08:46:13;;;;;;;1.87;0.80;;;24.00;29.60;;;;;;5110599;28;20631;-65
2021/04/01 08:49:16;;;;;;;2.17;1.00;;;24.00;29.70;;;;;;5110885;28;20417;-66
2021/04/01 08:51:53;;;;;;;2.10;0.82;;;24.00;29.60;;;;;;5109870;28;20396;-66
2021/04/01 08:54:30;;;;;;;1.50;0.70;;;24.10;29.60;;;;;;5110804;28;20429;-66
2021/04/01 08:57:07;;;;;;;2.75;0.95;;;24.10;29.60;;;;;;5110649;28;20468;-67
2021/04/01 08:59:46;;;;;;;1.80;0.85;;;24.10;29.60;;;;;;5109773;28;20377;-66
2021/04/01 09:02:14;;;;;;;2.13;0.90;;;24.10;29.60;;;;;;5110609;28;20380;-63
2021/04/01 09:04:47;;;;;;;2.25;0.80;;;24.10;29.50;;;;;;5110367;28;20473;-65
2021/04/01 09:07:17;;;;;;;1.90;0.80;;;24.10;29.50;;;;;;5110638;28;20883;-66
2021/04/01 09:09:49;;;;;;;1.60;0.80;;;24.10;29.50;;;;;;5110106;28;20364;-66
2021/04/01 09:12:30;;;;;;;1.30;0.70;;;24.10;29.50;;;;;;5110599;28;20378;-65
2021/04/01 09:15:05;;;;;;;2.17;0.90;;;24.20;29.50;;;;;;5110521;28;20467;-66
2021/04/01 09:17:36;;;;;;;1.60;0.80;;;24.20;29.50;;;;;;5109975;28;20472;-63
2021/04/01 09:20:12;;;;;;;2.03;0.90;;;24.20;29.50;;;;;;5110609;28;20423;-66
2021/04/01 09:22:51;;;;;;;1.70;0.70;;;24.20;29.50;;;;;;5109085;28;20400;-66
2021/04/01 09:25:18;;;;;;;1.70;0.88;;;24.20;29.50;;;;;;5110235;28;20419;-63
2021/04/01 09:27:50;;;;;;;1.98;0.82;;;24.20;29.50;;;;;;5109683;28;20389;-67
2021/04/01 09:30:17;;;;;;;1.85;0.88;;;24.20;30.00;;;;;;5110733;28;20376;-64
2021/04/01 09:32:47;;;;;;;1.70;0.90;;;24.20;29.50;;;;;;5110221;28;20399;-66
2021/04/01 09:35:14;;;;;;;2.10;0.93;;;24.30;29.50;;;;;;5114486;28;20411;-64
2021/04/01 09:37:57;;;;;;;2.08;0.90;;;24.30;29.50;;;;;;5113940;28;20747;-66
2021/04/01 09:40:49;;;;;;;1.77;0.80;;;24.30;29.50;;;;;;5114296;28;20860;-62
2021/04/01 09:43:21;;;;;;;1.75;0.80;;;24.30;29.50;;;;;;5111409;27;20467;-65
2021/04/01 09:45:51;;;;;;;1.75;0.85;;;24.30;29.50;;;;;;5113760;28;20408;-65
2021/04/01 09:48:25;;;;;;;1.30;0.80;;;24.30;29.50;;;;;;5115500;28;20457;-66
2021/04/01 09:50:55;;;;;;;2.72;0.90;;;24.30;29.50;;;;;;5115406;28;20728;-67
2021/04/01 09:53:23;;;;;;;2.85;0.90;;;24.30;29.40;;;;;;5115435;28;20364;-60
2021/04/01 09:55:55;;;;;;;2.70;1.00;;;24.20;29.50;;;;;;5113315;28;20483;-58
2021/04/01 09:58:30;;;;;;;1.92;0.90;;;24.20;29.50;;;;;;5115486;28;20376;-66
2021/04/01 10:01:25;;;;;;;2.60;1.00;;;24.20;29.50;;;;;;5115285;28;20406;-67
2021/04/01 10:04:15;;;;;;;2.22;0.80;;;24.20;29.60;;;;;;5114726;28;20380;-67
2021/04/01 10:06:52;;;;;;;6.72;1.20;;;24.20;29.60;;;;;;5115020;28;20755;-66
2021/04/01 10:09:20;;;;;;;3.83;1.15;;;24.20;30.10;;;;;;5115143;28;20383;-66
2021/04/01 10:11:57;;;;;;;4.95;1.20;;;24.10;30.50;;;;;;5114495;28;20433;-63
2021/04/01 10:14:23;;;;;;;4.85;0.95;;;24.20;29.90;;;;;;5107747;27;20473;-66
2021/04/01 10:17:00;;;;;;;5.03;0.90;;;24.20;29.80;;;;;;5104789;28;20811;-62
2021/04/01 10:19:34;;;;;;;2.63;1.00;;;24.30;29.80;;;;;;5105284;28;20404;-64
2021/04/01 10:22:00;;;;;;;3.20;0.98;;;24.30;29.70;;;;;;5105316;28;20418;-64
2021/04/01 10:24:35;;;;;;;3.22;0.80;;;24.30;29.70;;;;;;5103384;28;20386;-65
2021/04/01 10:27:18;;;;;;;2.87;1.00;;;24.30;29.80;;;;;;5105945;28;20446;-61
2021/04/01 10:32:14;;;;;;;2.47;0.85;;;24.30;29.70;;;;;;5103971;28;20440;-67
2021/04/01 10:35:05;;;;;;;3.07;1.00;;;24.30;29.70;;;;;;5101355;28;20395;-66
2021/04/01 10:37:31;;;;;;;3.20;0.90;;;24.30;29.80;;;;;;5092673;28;20409;-65
2021/04/01 10:40:05;;;;;;;2.20;0.98;;;24.30;29.80;;;;;;5093844;28;20382;-66
2021/04/01 10:42:32;;;;;;;3.30;1.05;;;24.30;29.80;;;;;;5094015;28;20382;-66
2021/04/01 10:45:08;;;;;;;2.20;1.10;;;24.30;29.90;;;;;;5093387;28;20882;-66
2021/04/01 10:47:57;;;;;;;2.30;1.10;;;24.30;29.80;;;;;;5093659;28;20394;-66
2021/04/01 10:50:27;;;;;;;4.25;1.02;;;24.30;30.30;;;;;;5093944;28;20459;-66
2021/04/01 10:52:54;;;;;;;3.97;1.20;;;24.30;29.90;;;;;;5094020;28;20386;-66
2021/04/01 10:55:25;;;;;;;2.47;1.10;;;24.30;29.90;;;;;;5092476;28;20459;-67
2021/04/01 10:57:51;;;;;;;2.45;1.08;;;24.30;29.90;;;;;;5091955;28;20459;-66
2021/04/01 11:00:17;;;;;;;2.17;1.03;;;24.30;29.90;;;;;;5093661;28;20870;-65
2021/04/01 11:02:54;;;;;;;2.08;1.05;;;24.30;29.90;;;;;;5093596;28;20451;-65
2021/04/01 11:05:21;;;;;;;2.93;1.00;;;24.30;29.90;;;;;;5092240;28;20817;-67
2021/04/01 11:08:08;;;;;;;3.35;1.10;;;24.30;29.90;;;;;;5093014;28;20420;-65
2021/04/01 11:10:35;;;;;;;2.83;1.15;;;24.30;30.40;;;;;;5093309;28;20382;-66
2021/04/01 11:13:02;;;;;;;2.75;1.20;;;24.30;29.90;;;;;;5093464;28;20950;-66
2021/04/01 11:15:33;;;;;;;2.20;1.20;;;24.30;29.90;;;;;;5093360;28;20386;-66
2021/04/01 11:18:19;;;;;;;2.70;1.00;;;24.30;29.90;;;;;;5093168;28;20888;-66
2021/04/01 11:20:48;;;;;;;2.35;1.10;;;24.30;29.90;;;;;;5093205;28;20386;-64
2021/04/01 11:23:25;;;;;;;2.00;1.10;;;24.30;29.90;;;;;;5093229;28;20447;-67
2021/04/01 11:25:53;;;;;;;2.03;1.00;;;24.30;29.80;;;;;;5092526;28;20417;-65
2021/04/01 11:28:30;;;;;;;2.47;1.00;;;24.20;29.80;;;;;;5092960;28;20388;-66
2021/04/01 11:30:58;;;;;;;2.63;1.10;;;24.30;29.90;;;;;;5092845;28;20390;-67
2021/04/01 11:33:26;;;;;;;2.50;1.00;;;24.30;29.90;;;;;;5093095;28;20734;-65
2021/04/01 11:38:26;;;;;;;4.82;1.33;;;24.20;30.00;;;;;;5093047;28;20396;-66
2021/04/01 11:41:03;;;;;;;8.30;1.35;;;24.30;30.00;;;;;;5092726;28;20448;-66
2021/04/01 11:43:32;;;;;;;3.97;1.30;;;24.30;30.00;;;;;;5092816;28;20386;-64
2021/04/01 11:46:10;;;;;;;4.68;1.40;;;24.40;29.90;;;;;;5092339;28;20422;-67
2021/04/01 11:48:35;;;;;;;4.88;1.48;;;24.40;29.90;;;;;;5098052;28;20409;-66
2021/04/01 11:51:02;;;;;;;6.20;1.57;;;24.40;29.90;;;;;;5105423;28;20384;-67
2021/04/01 11:53:29;;;;;;;5.80;1.30;;;24.40;29.80;;;;;;5100106;28;20446;-67
2021/04/01 11:55:55;;;;;;;3.45;1.10;;;24.50;29.90;;;;;;5098177;28;20938;-67
2021/04/01 11:58:22;;;;;;;3.53;1.10;;;24.40;29.80;;;;;;5100554;28;20416;-63
2021/04/01 12:00:51;;;;;;;5.70;1.30;;;24.50;29.80;;;;;;5098194;28;20398;-66
2021/04/01 12:03:49;;;;;;;3.72;1.20;;;24.50;29.80;;;;;;5099180;28;20425;-66
2021/04/01 12:06:04;;;;;;;3.70;1.20;;;24.50;29.90;;;;;;5098605;28;20406;-66
2021/04/01 12:08:29;;;;;;;3.53;1.20;;;24.50;29.80;;;;;;5097473;28;20749;-63
2021/04/01 12:10:57;;;;;;;3.57;1.20;;;24.50;30.30;;;;;;5091259;28;20398;-66
2021/04/01 12:13:24;;;;;;;4.55;1.20;;;24.50;29.90;;;;;;5090974;28;20866;-62
2021/04/01 12:15:50;;;;;;;3.20;1.00;;;24.50;29.70;;;;;;5090453;28;20453;-66
2021/04/01 12:18:16;;;;;;;2.88;1.10;;;24.60;29.80;;;;;;5091041;28;20452;-66
2021/04/01 12:20:42;;;;;;;2.03;1.10;;;24.60;29.70;;;;;;5090615;28;20402;-66
2021/04/01 12:23:12;;;;;;;3.50;0.90;;;24.60;29.80;;;;;;5090676;28;20406;-66
2021/04/01 12:25:37;;;;;;;2.13;1.10;;;24.60;29.80;;;;;;5090479;28;20479;-66
2021/04/01 12:28:03;;;;;;;2.70;1.13;;;24.60;29.70;;;;;;5090584;28;20405;-66
2021/04/01 12:30:35;;;;;;;2.28;1.00;;;24.60;29.70;;;;;;5090589;28;20378;-66
2021/04/01 12:33:12;;;;;;;1.98;1.02;;;24.60;29.70;;;;;;5090933;28;20386;-66
2021/04/01 12:35:58;;;;;;;2.40;1.10;;;24.60;29.70;;;;;;5090272;28;20377;-66
2021/04/01 12:38:33;;;;;;;2.38;1.10;;;24.60;29.70;;;;;;5090569;28;20374;-66
2021/04/01 12:41:08;;;;;;;3.10;1.13;;;24.60;29.70;;;;;;5090535;28;20913;-66
2021/04/01 12:43:43;;;;;;;1.98;0.98;;;24.60;29.70;;;;;;5090715;28;20398;-65
2021/04/01 12:46:09;;;;;;;2.42;0.95;;;24.60;29.70;;;;;;5090389;28;20425;-64
2021/04/01 12:48:54;;;;;;;1.87;1.07;;;24.60;29.70;;;;;;5090458;28;20386;-65
2021/04/01 12:51:23;;;;;;;2.38;1.00;;;24.60;29.70;;;;;;5090476;28;20378;-65
2021/04/01 12:54:09;;;;;;;2.70;1.15;;;24.60;29.70;;;;;;5089901;28;20390;-66
2021/04/01 12:56:59;;;;;;;2.50;1.15;;;24.70;29.70;;;;;;5090407;28;20878;-64
2021/04/01 12:59:31;;;;;;;1.90;1.13;;;24.70;29.70;;;;;;5089969;28;20477;-65
2021/04/01 13:02:06;;;;;;;2.13;1.20;;;24.70;29.80;;;;;;5090133;28;20397;-67
2021/04/01 13:04:33;;;;;;;2.92;1.20;;;24.70;29.70;;;;;;5090230;28;20467;-63
2021/04/01 13:07:18;;;;;;;1.88;1.08;;;24.70;29.60;;;;;;5091024;28;20563;-65
2021/04/01 13:12:18;;;;;;;1.70;1.00;;;24.70;29.60;;;;;;5096872;28;20463;-67
2021/04/01 13:14:45;;;;;;;2.47;1.17;;;24.70;29.60;;;;;;5096617;28;20385;-66
2021/04/01 13:17:11;;;;;;;1.93;1.07;;;24.70;29.60;;;;;;5096539;28;20726;-66
2021/04/01 13:19:37;;;;;;;2.10;0.95;;;24.70;29.60;;;;;;5096300;28;20385;-63
2021/04/01 13:22:11;;;;;;;2.08;1.08;;;24.80;29.60;;;;;;5096606;28;20893;-65
2021/04/01 13:27:13;;;;;;;1.48;1.00;;;24.70;29.50;;;;;;5096720;28;20550;-65
2021/04/01 13:29:42;;;;;;;1.70;1.00;;;24.80;29.60;;;;;;5096216;28;20382;-63
2021/04/01 13:32:18;;;;;;;2.00;1.00;;;24.70;29.50;;;;;;5096473;28;20389;-63
2021/04/01 13:39:45;;;;;;;2.33;0.90;;;24.80;29.60;;;;;;5096860;28;20397;-66
2021/04/01 13:47:12;;;;;;;1.97;1.00;;;24.80;29.50;;;;;;5096727;28;20420;-65
2021/04/01 13:49:40;;;;;;;2.28;0.95;;;24.80;29.60;;;;;;5096240;28;20390;-59
2021/04/01 13:52:42;;;;;;;2.67;1.30;;;24.80;29.60;;;;;;5096267;28;20394;-66
2021/04/01 13:55:19;;;;;;;1.80;0.98;;;24.80;29.50;;;;;;5094387;28;20390;-63
2021/04/01 14:00:52;;;;;;;2.42;1.10;;;24.80;29.50;;;;;;5096579;28;20386;-65
2021/04/01 14:09:18;;;;;;;1.77;0.90;;;24.80;29.50;;;;;;5096727;28;20377;-64
2021/04/01 14:11:44;;;;;;;1.90;1.00;;;24.80;29.50;;;;;;5096378;28;20393;-66
2021/04/01 14:14:10;;;;;;;1.83;1.00;;;24.80;29.60;;;;;;5096224;28;20877;-66
2021/04/01 14:16:38;;;;;;;1.90;0.98;;;24.80;29.50;;;;;;5096405;28;20399;-65
2021/04/01 14:19:05;;;;;;;2.33;0.95;;;24.80;29.60;;;;;;5094323;28;20477;-65
2021/04/01 14:21:32;;;;;;;1.67;1.00;;;24.80;29.50;;;;;;5093111;28;20382;-66
2021/04/01 14:23:58;;;;;;;2.00;0.93;;;24.80;29.50;;;;;;5092588;28;20433;-62
2021/04/01 14:26:35;;;;;;;2.22;1.10;;;24.80;29.50;;;;;;5092899;28;20884;-66
2021/04/01 14:29:03;;;;;;;2.47;1.02;;;24.80;29.50;;;;;;5092994;28;20378;-66
2021/04/01 14:31:28;;;;;;;2.05;1.08;;;24.80;29.50;;;;;;5092251;28;20394;-65
2021/04/01 14:33:55;;;;;;;2.13;0.90;;;24.80;29.60;;;;;;5092493;28;20507;-67
2021/04/01 14:36:24;;;;;;;1.92;1.10;;;24.80;29.50;;;;;;5092764;28;20439;-65
2021/04/01 14:38:51;;;;;;;1.40;1.00;;;24.80;29.60;;;;;;5092860;28;20386;-67
2021/04/01 14:41:40;;;;;;;2.00;1.00;;;24.80;29.50;;;;;;5093080;28;20397;-66
2021/04/01 14:44:15;;;;;;;1.83;0.90;;;24.70;29.50;;;;;;5092301;28;20386;-67
2021/04/01 14:46:42;;;;;;;2.13;1.00;;;24.80;29.60;;;;;;5092463;28;20491;-66
2021/04/01 14:49:08;;;;;;;3.38;1.00;;;24.70;29.60;;;;;;5092928;28;20386;-65
2021/04/01 14:51:34;;;;;;;3.45;1.00;;;24.60;30.90;;;;;;5092198;28;20390;-65
2021/04/01 14:54:05;;;;;;;2.55;0.90;;;24.60;30.30;;;;;;5091978;28;20374;-64
2021/04/01 14:56:33;;;;;;;2.53;1.13;;;24.70;29.80;;;;;;5092437;28;20902;-63
2021/04/01 14:59:01;;;;;;;4.35;1.20;;;24.60;29.80;;;;;;5092443;28;20907;-65
2021/04/01 15:01:29;;;;;;;10.50;1.70;;;24.60;29.90;;;;;;5092345;28;20390;-64